Flight Track Log - Related Links

Times and Time Zones

All times are in EST time to prevent confusion due to time zone crossing. See the FIN80 flight status page for this flight to view local times or setup timezone preferences in your user account.

Time Position Orientation Groundspeed Altitude Reporting Facility
EST Latitude Longitude Course Direction KTS MPH feet Rate Location/Type
Thu 10:07:00 PM 35.2727 136.5199 331° Northwest  Level Estimated
Thu 10:08:00 PM 35.3762 136.4481 331° Northwest  Level Estimated
Thu 10:09:00 PM 35.4796 136.3761 330° Northwest  Level Estimated
Thu 10:10:00 PM 35.5830 136.3040 330° Northwest  Level Estimated
Thu 10:11:00 PM 35.6864 136.2316 330° Northwest  Level Estimated
Thu 10:12:00 PM 35.7897 136.1591 330° Northwest  Level Estimated
Thu 10:13:00 PM 35.8929 136.0864 330° Northwest  Level Estimated
Thu 10:14:00 PM 35.9962 136.0134 330° Northwest  Level Estimated
Thu 10:15:00 PM 36.0994 135.9403 330° Northwest  Level Estimated
Thu 10:16:00 PM 36.2025 135.8670 330° Northwest  Level Estimated
Thu 10:17:00 PM 36.3056 135.7935 330° Northwest  Level Estimated
Thu 10:18:00 PM 36.4086 135.7199 330° Northwest  Level Estimated
Thu 10:19:00 PM 36.5116 135.6460 330° Northwest  Level Estimated
Thu 10:20:00 PM 36.6146 135.5719 330° Northwest  Level Estimated
Thu 10:21:00 PM 36.7175 135.4976 330° Northwest  Level Estimated
Thu 10:22:00 PM 36.8204 135.4231 330° Northwest  Level Estimated
Thu 10:23:00 PM 36.9232 135.3485 330° Northwest  Level Estimated
Thu 10:24:00 PM 37.0260 135.2736 330° Northwest  Level Estimated
Thu 10:25:00 PM 37.1287 135.1985 330° Northwest  Level Estimated
Thu 10:26:00 PM 37.2313 135.1232 330° Northwest  Level Estimated
Thu 10:27:00 PM 37.3340 135.0477 330° Northwest  Level Estimated
Thu 10:28:00 PM 37.4366 134.9720 330° Northwest  Level Estimated
Thu 10:29:00 PM 37.5391 134.8961 330° Northwest  Level Estimated
Thu 10:30:00 PM 37.6416 134.8200 330° Northwest  Level Estimated
Thu 10:31:00 PM 37.7440 134.7437 329° Northwest  Level Estimated
Thu 10:32:00 PM 37.8464 134.6671 329° Northwest  Level Estimated
Thu 10:33:00 PM 37.9487 134.5904 329° Northwest  Level Estimated
Thu 10:34:00 PM 38.0510 134.5134 329° Northwest  Level Estimated
Thu 10:35:00 PM 38.1532 134.4362 329° Northwest  Level Estimated
Thu 10:36:00 PM 38.2554 134.3588 329° Northwest  Level Estimated
Thu 10:37:00 PM 38.3575 134.2812 329° Northwest  Level Estimated
Thu 10:38:00 PM 38.4596 134.2034 329° Northwest  Level Estimated
Thu 10:39:00 PM 38.5616 134.1254 329° Northwest  Level Estimated
Thu 10:40:00 PM 38.6636 134.0471 329° Northwest  Level Estimated
Thu 10:41:00 PM 38.7655 133.9686 329° Northwest  Level Estimated
Thu 10:42:00 PM 38.8674 133.8899 329° Northwest  Level Estimated
Thu 10:43:00 PM 38.9692 133.8109 329° Northwest  Level Estimated
Thu 10:44:00 PM 39.0710 133.7317 329° Northwest  Level Estimated
Thu 10:45:00 PM 39.1727 133.6523 329° Northwest  Level Estimated
Thu 10:46:00 PM 39.2744 133.5727 329° Northwest  Level Estimated
Thu 10:47:00 PM 39.3760 133.4928 329° Northwest  Level Estimated
Thu 10:48:00 PM 39.4775 133.4127 329° Northwest  Level Estimated
Thu 10:49:00 PM 39.5790 133.3324 329° Northwest  Level Estimated
Thu 10:50:00 PM 39.6805 133.2518 329° Northwest  Level Estimated
Thu 10:51:00 PM 39.7818 133.1710 329° Northwest  Level Estimated
Thu 10:52:00 PM 39.8832 133.0900 328° Northwest  Level Estimated
Thu 10:53:00 PM 39.9844 133.0087 328° Northwest  Level Estimated
Thu 10:54:00 PM 40.0856 132.9272 328° Northwest  Level Estimated
Thu 10:55:00 PM 40.1868 132.8454 328° Northwest  Level Estimated
Thu 10:56:00 PM 40.2879 132.7634 328° Northwest  Level Estimated
Thu 10:57:00 PM 40.3889 132.6811 328° Northwest  Level Estimated
Thu 10:58:00 PM 40.4899 132.5986 328° Northwest  Level Estimated
Thu 10:59:00 PM 40.5908 132.5159 328° Northwest  Level Estimated
Thu 11:00:00 PM 40.6917 132.4329 328° Northwest  Level Estimated
Thu 11:01:00 PM 40.7925 132.3496 328° Northwest  Level Estimated
Thu 11:02:00 PM 40.8932 132.2661 328° Northwest  Level Estimated
Thu 11:03:00 PM 40.9939 132.1824 328° Northwest  Level Estimated
Thu 11:04:00 PM 41.0945 132.0983 328° Northwest  Level Estimated
Thu 11:05:00 PM 41.1951 132.0141 328° Northwest  Level Estimated
Thu 11:06:00 PM 41.2956 131.9295 328° Northwest  Level Estimated
Thu 11:07:00 PM 41.3960 131.8447 328° Northwest  Level Estimated
Thu 11:08:00 PM 41.4964 131.7597 328° Northwest  Level Estimated
Thu 11:09:00 PM 41.5967 131.6743 328° Northwest  Level Estimated
Thu 11:10:00 PM 41.6970 131.5888 327° Northwest  Level Estimated
Thu 11:11:00 PM 41.7972 131.5029 327° Northwest  Level Estimated
Thu 11:12:00 PM 41.8973 131.4168 327° Northwest  Level Estimated
Thu 11:13:00 PM 41.9973 131.3304 327° Northwest  Level Estimated
Thu 11:14:00 PM 42.0973 131.2437 327° Northwest  Level Estimated
Thu 11:15:00 PM 42.1973 131.1568 327° Northwest  Level Estimated
Thu 11:16:00 PM 42.2971 131.0696 327° Northwest  Level Estimated
Thu 11:17:00 PM 42.3969 130.9821 327° Northwest  Level Estimated
Thu 11:18:00 PM 42.4966 130.8943 327° Northwest  Level Estimated
Thu 11:19:00 PM 42.5963 130.8062 327° Northwest  Level Estimated
Thu 11:20:00 PM 42.6959 130.7179 327° Northwest  Level Estimated
Thu 11:21:00 PM 42.7954 130.6293 327° Northwest  Level Estimated
Thu 11:22:00 PM 42.8949 130.5404 327° Northwest  Level Estimated
Thu 11:23:00 PM 42.9943 130.4512 327° Northwest  Level Estimated
Thu 11:24:00 PM 43.0936 130.3617 327° Northwest  Level Estimated
Thu 11:25:00 PM 43.1928 130.2720 327° Northwest  Level Estimated
Thu 11:26:00 PM 43.2920 130.1819 327° Northwest  Level Estimated
Thu 11:27:00 PM 43.3911 130.0915 326° Northwest  Level Estimated
Thu 11:28:00 PM 43.4902 130.0009 326° Northwest  Level Estimated
Thu 11:29:00 PM 43.5891 129.9099 326° Northwest  Level Estimated
Thu 11:30:00 PM 43.6880 129.8187 326° Northwest  Level Estimated
Thu 11:31:00 PM 43.7868 129.7271 326° Northwest  Level Estimated
Thu 11:32:00 PM 43.8856 129.6353 326° Northwest  Level Estimated
Thu 11:33:00 PM 43.9842 129.5431 326° Northwest  Level Estimated
Thu 11:34:00 PM 44.0828 129.4507 326° Northwest  Level Estimated
Thu 11:35:00 PM 44.1814 129.3579 326° Northwest  Level Estimated
Thu 11:36:00 PM 44.2798 129.2648 326° Northwest  Level Estimated
Thu 11:37:00 PM 44.3782 129.1714 326° Northwest  Level Estimated
Thu 11:38:00 PM 44.4765 129.0777 326° Northwest  Level Estimated
Thu 11:39:00 PM 44.5747 128.9837 326° Northwest  Level Estimated
Thu 11:40:00 PM 44.6728 128.8893 326° Northwest  Level Estimated
Thu 11:41:00 PM 44.7709 128.7947 326° Northwest  Level Estimated
Thu 11:42:00 PM 44.8689 128.6997 326° Northwest  Level Estimated
Thu 11:43:00 PM 44.9668 128.6044 325° Northwest  Level Estimated
Thu 11:44:00 PM 45.0646 128.5087 325° Northwest  Level Estimated
Thu 11:45:00 PM 45.1623 128.4128 325° Northwest  Level Estimated
Thu 11:46:00 PM 45.2600 128.3165 325° Northwest  Level Estimated
Thu 11:47:00 PM 45.3576 128.2199 325° Northwest  Level Estimated
Thu 11:48:00 PM 45.4551 128.1229 325° Northwest  Level Estimated
Thu 11:49:00 PM 45.5525 128.0256 325° Northwest  Level Estimated
Thu 11:50:00 PM 45.6498 127.9280 325° Northwest  Level Estimated
Thu 11:51:00 PM 45.7471 127.8300 325° Northwest  Level Estimated
Thu 11:52:00 PM 45.8442 127.7317 325° Northwest  Level Estimated
Thu 11:53:00 PM 45.9413 127.6330 325° Northwest  Level Estimated
Thu 11:54:00 PM 46.0383 127.5340 325° Northwest  Level Estimated
Thu 11:55:00 PM 46.1352 127.4347 325° Northwest  Level Estimated
Thu 11:56:00 PM 46.2321 127.3350 325° Northwest  Level Estimated
Thu 11:57:00 PM 46.3288 127.2349 324° Northwest  Level Estimated
Thu 11:58:00 PM 46.4256 127.1344 324° Northwest  Level Estimated
Thu 11:59:00 PM 46.5224 127.0334 324° Northwest  Level Estimated
Fri 12:00:00 AM 46.6190 126.9321 324° Northwest  Level Estimated
Fri 12:01:00 AM 46.7155 126.8305 324° Northwest  Level Estimated
Fri 12:02:00 AM 46.8120 126.7284 324° Northwest  Level Estimated
Fri 12:03:00 AM 46.9084 126.6261 324° Northwest  Level Estimated
Fri 12:04:00 AM 47.0047 126.5233 324° Northwest  Level Estimated
Fri 12:05:00 AM 47.1008 126.4202 324° Northwest  Level Estimated
Fri 12:06:00 AM 47.1969 126.3167 324° Northwest  Level Estimated
Fri 12:07:00 AM 47.2929 126.2128 324° Northwest  Level Estimated
Fri 12:08:00 AM 47.3888 126.1085 324° Northwest  Level Estimated
Fri 12:09:00 AM 47.4846 126.0039 324° Northwest  Level Estimated
Fri 12:10:00 AM 47.5803 125.8989 324° Northwest  Level Estimated
Fri 12:11:00 AM 47.6760 125.7935 323° Northwest  Level Estimated
Fri 12:12:00 AM 47.7715 125.6877 323° Northwest  Level Estimated
Fri 12:13:00 AM 47.8669 125.5815 323° Northwest  Level Estimated
Fri 12:14:00 AM 47.9622 125.4749 323° Northwest  Level Estimated
Fri 12:15:00 AM 48.0574 125.3680 323° Northwest  Level Estimated
Fri 12:16:00 AM 48.1526 125.2606 323° Northwest  Level Estimated
Fri 12:17:00 AM 48.2476 125.1528 323° Northwest  Level Estimated
Fri 12:18:00 AM 48.3425 125.0447 323° Northwest  Level Estimated
Fri 12:19:00 AM 48.4374 124.9361 323° Northwest  Level Estimated
Fri 12:20:00 AM 48.5321 124.8272 323° Northwest  Level Estimated
Fri 12:21:00 AM 48.6267 124.7178 323° Northwest  Level Estimated
Fri 12:22:00 AM 48.7212 124.6080 323° Northwest  Level Estimated
Fri 12:23:00 AM 48.8156 124.4978 322° Northwest  Level Estimated
Fri 12:24:00 AM 48.9099 124.3872 322° Northwest  Level Estimated
Fri 12:25:00 AM 49.0041 124.2761 322° Northwest  Level Estimated
Fri 12:26:00 AM 49.0982 124.1647 322° Northwest  Level Estimated
Fri 12:27:00 AM 49.1922 124.0528 322° Northwest  Level Estimated
Fri 12:28:00 AM 49.2860 123.9405 322° Northwest  Level Estimated
Fri 12:29:00 AM 49.3798 123.8278 322° Northwest  Level Estimated
Fri 12:30:00 AM 49.4735 123.7146 322° Northwest  Level Estimated
Fri 12:31:00 AM 49.5670 123.6010 322° Northwest  Level Estimated
Fri 12:32:00 AM 49.6604 123.4870 322° Northwest  Level Estimated
Fri 12:33:00 AM 49.7537 123.3725 322° Northwest  Level Estimated
Fri 12:34:00 AM 49.8470 123.2576 322° Northwest  Level Estimated
Fri 12:35:00 AM 49.9400 123.1423 321° Northwest  Level Estimated
Fri 12:36:00 AM 50.0330 123.0265 321° Northwest  Level Estimated
Fri 12:37:00 AM 50.1259 122.9102 321° Northwest  Level Estimated
Fri 12:38:00 AM 50.2186 122.7935 321° Northwest  Level Estimated
Fri 12:39:00 AM 50.3113 122.6764 321° Northwest  Level Estimated
Fri 12:40:00 AM 50.4038 122.5587 321° Northwest  Level Estimated
Fri 12:41:00 AM 50.4962 122.4407 321° Northwest  Level Estimated
Fri 12:42:00 AM 50.5884 122.3221 321° Northwest  Level Estimated
Fri 12:43:00 AM 50.6806 122.2031 321° Northwest  Level Estimated
Fri 12:44:00 AM 50.7726 122.0837 321° Northwest  Level Estimated
Fri 12:45:00 AM 50.8645 121.9637 321° Northwest  Level Estimated
Fri 12:46:00 AM 50.9563 121.8433 320° Northwest  Level Estimated
Fri 12:47:00 AM 51.0480 121.7224 320° Northwest  Level Estimated
Fri 12:48:00 AM 51.1395 121.6011 320° Northwest  Level Estimated
Fri 12:49:00 AM 51.2309 121.4792 320° Northwest  Level Estimated
Fri 12:50:00 AM 51.3222 121.3569 320° Northwest  Level Estimated
Fri 12:51:00 AM 51.4133 121.2340 320° Northwest  Level Estimated
Fri 12:52:00 AM 51.5043 121.1107 320° Northwest  Level Estimated
Fri 12:53:00 AM 51.5952 120.9869 320° Northwest  Level Estimated
Fri 12:54:00 AM 51.6860 120.8626 320° Northwest  Level Estimated
Fri 12:55:00 AM 51.7766 120.7378 320° Northwest  Level Estimated
Fri 12:56:00 AM 51.8671 120.6125 319° Northwest  Level Estimated
Fri 12:57:00 AM 51.9575 120.4867 319° Northwest  Level Estimated
Fri 12:58:00 AM 52.0477 120.3604 319° Northwest  Level Estimated
Fri 12:59:00 AM 52.1378 120.2336 319° Northwest  Level Estimated
Fri 01:00:00 AM 52.2278 120.1062 319° Northwest  Level Estimated
Fri 01:01:00 AM 52.3176 119.9784 319° Northwest  Level Estimated
Fri 01:02:00 AM 52.4073 119.8500 319° Northwest  Level Estimated
Fri 01:03:00 AM 52.4968 119.7211 319° Northwest  Level Estimated
Fri 01:04:00 AM 52.5862 119.5917 319° Northwest  Level Estimated
Fri 01:05:00 AM 52.6755 119.4617 319° Northwest  Level Estimated
Fri 01:06:00 AM 52.7646 119.3312 318° Northwest  Level Estimated
Fri 01:07:00 AM 52.8536 119.2002 318° Northwest  Level Estimated
Fri 01:08:00 AM 52.9424 119.0686 318° Northwest  Level Estimated
Fri 01:09:00 AM 53.0311 118.9365 318° Northwest  Level Estimated
Fri 01:10:00 AM 53.1196 118.8039 318° Northwest  Level Estimated
Fri 01:11:00 AM 53.2080 118.6707 318° Northwest  Level Estimated
Fri 01:12:00 AM 53.2962 118.5370 318° Northwest  Level Estimated
Fri 01:13:00 AM 53.3843 118.4027 318° Northwest  Level Estimated
Fri 01:14:00 AM 53.4723 118.2678 318° Northwest  Level Estimated
Fri 01:15:00 AM 53.5601 118.1324 318° Northwest  Level Estimated
Fri 01:16:00 AM 53.6477 117.9965 317° Northwest  Level Estimated
Fri 01:17:00 AM 53.7352 117.8599 317° Northwest  Level Estimated
Fri 01:18:00 AM 53.8225 117.7228 317° Northwest  Level Estimated
Fri 01:19:00 AM 53.9096 117.5851 317° Northwest  Level Estimated
Fri 01:20:00 AM 53.9966 117.4469 317° Northwest  Level Estimated
Fri 01:21:00 AM 54.0835 117.3081 317° Northwest  Level Estimated
Fri 01:22:00 AM 54.1702 117.1686 317° Northwest  Level Estimated
Fri 01:23:00 AM 54.2567 117.0286 317° Northwest  Level Estimated
Fri 01:24:00 AM 54.3431 116.8880 317° Northwest  Level Estimated
Fri 01:25:00 AM 54.4293 116.7469 316° Northwest  Level Estimated
Fri 01:26:00 AM 54.5153 116.6051 316° Northwest  Level Estimated
Fri 01:27:00 AM 54.6012 116.4627 316° Northwest  Level Estimated
Fri 01:28:00 AM 54.6869 116.3198 316° Northwest  Level Estimated
Fri 01:29:00 AM 54.7724 116.1762 316° Northwest  Level Estimated
Fri 01:30:00 AM 54.8577 116.0320 316° Northwest  Level Estimated
Fri 01:31:00 AM 54.9429 115.8872 316° Northwest  Level Estimated
Fri 01:32:00 AM 55.0279 115.7418 316° Northwest  Level Estimated
Fri 01:33:00 AM 55.1128 115.5958 315° West  Level Estimated
Fri 01:34:00 AM 55.1974 115.4491 315° West  Level Estimated
Fri 01:35:00 AM 55.2819 115.3018 315° West  Level Estimated
Fri 01:36:00 AM 55.3662 115.1539 315° West  Level Estimated
Fri 01:37:00 AM 55.4504 115.0054 315° West  Level Estimated
Fri 01:38:00 AM 55.5343 114.8562 315° West  Level Estimated
Fri 01:39:00 AM 55.6181 114.7065 315° West  Level Estimated
Fri 01:40:00 AM 55.7017 114.5560 315° West  Level Estimated
Fri 01:41:00 AM 55.7851 114.4049 315° West  Level Estimated
Fri 01:42:00 AM 55.8683 114.2532 314° West  Level Estimated
Fri 01:43:00 AM 55.9513 114.1008 314° West  Level Estimated
Fri 01:44:00 AM 56.0341 113.9478 314° West  Level Estimated
Fri 01:45:00 AM 56.1168 113.7941 314° West  Level Estimated
Fri 01:46:00 AM 56.1993 113.6397 314° West  Level Estimated
Fri 01:47:00 AM 56.2815 113.4847 314° West  Level Estimated
Fri 01:48:00 AM 56.3636 113.3290 314° West  Level Estimated
Fri 01:49:00 AM 56.4455 113.1726 313° West  Level Estimated
Fri 01:50:00 AM 56.5271 113.0156 313° West  Level Estimated
Fri 01:51:00 AM 56.6086 112.8579 313° West  Level Estimated
Fri 01:52:00 AM 56.6899 112.6995 313° West  Level Estimated
Fri 01:53:00 AM 56.7710 112.5404 313° West  Level Estimated
Fri 01:54:00 AM 56.8518 112.3806 313° West  Level Estimated
Fri 01:55:00 AM 56.9325 112.2202 313° West  Level Estimated
Fri 01:56:00 AM 57.0130 112.0590 313° West  Level Estimated
Fri 01:57:00 AM 57.0932 111.8972 312° West  Level Estimated
Fri 01:58:00 AM 57.1732 111.7346 312° West  Level Estimated
Fri 01:59:00 AM 57.2531 111.5714 312° West  Level Estimated
Fri 02:00:00 AM 57.3327 111.4074 312° West  Level Estimated
Fri 02:01:00 AM 57.4121 111.2427 312° West  Level Estimated
Fri 02:02:00 AM 57.4913 111.0773 312° West  Level Estimated
Fri 02:03:00 AM 57.5703 110.9112 312° West  Level Estimated
Fri 02:04:00 AM 57.6490 110.7444 311° West  Level Estimated
Fri 02:05:00 AM 57.7275 110.5769 311° West  Level Estimated
Fri 02:06:00 AM 57.8059 110.4086 311° West  Level Estimated
Fri 02:07:00 AM 57.8839 110.2396 311° West  Level Estimated
Fri 02:08:00 AM 57.9618 110.0698 311° West  Level Estimated
Fri 02:09:00 AM 58.0394 109.8993 311° West  Level Estimated
Fri 02:10:00 AM 58.1168 109.7281 311° West  Level Estimated
Fri 02:11:00 AM 58.1940 109.5561 310° West  Level Estimated
Fri 02:12:00 AM 58.2709 109.3834 310° West  Level Estimated
Fri 02:13:00 AM 58.3476 109.2099 310° West  Level Estimated
Fri 02:14:00 AM 58.4241 109.0357 310° West  Level Estimated
Fri 02:15:00 AM 58.5004 108.8607 310° West  Level Estimated
Fri 02:16:00 AM 58.5764 108.6850 310° West  Level Estimated
Fri 02:17:00 AM 58.6521 108.5085 310° West  Level Estimated
Fri 02:18:00 AM 58.7276 108.3312 309° West  Level Estimated
Fri 02:19:00 AM 58.8029 108.1532 309° West  Level Estimated
Fri 02:20:00 AM 58.8779 107.9744 309° West  Level Estimated
Fri 02:21:00 AM 58.9527 107.7948 309° West  Level Estimated
Fri 02:22:00 AM 59.0272 107.6144 309° West  Level Estimated
Fri 02:23:00 AM 59.1015 107.4333 309° West  Level Estimated
Fri 02:24:00 AM 59.1755 107.2513 308° West  Level Estimated
Fri 02:25:00 AM 59.2492 107.0686 308° West  Level Estimated
Fri 02:26:00 AM 59.3228 106.8851 308° West  Level Estimated
Fri 02:27:00 AM 59.3960 106.7008 308° West  Level Estimated
Fri 02:28:00 AM 59.4690 106.5157 308° West  Level Estimated
Fri 02:29:00 AM 59.5417 106.3298 308° West  Level Estimated
Fri 02:30:00 AM 59.6142 106.1431 308° West  Level Estimated
Fri 02:31:00 AM 59.6864 105.9555 307° West  Level Estimated
Fri 02:32:00 AM 59.7583 105.7672 307° West  Level Estimated
Fri 02:33:00 AM 59.8299 105.5781 307° West  Level Estimated
Fri 02:34:00 AM 59.9013 105.3881 307° West  Level Estimated
Fri 02:35:00 AM 59.9724 105.1974 307° West  Level Estimated
Fri 02:36:00 AM 60.0433 105.0058 307° West  Level Estimated
Fri 02:37:00 AM 60.1138 104.8134 306° West  Level Estimated
Fri 02:38:00 AM 60.1841 104.6202 306° West  Level Estimated
Fri 02:39:00 AM 60.2541 104.4261 306° West  Level Estimated
Fri 02:40:00 AM 60.3238 104.2312 306° West  Level Estimated
Fri 02:41:00 AM 60.3932 104.0355 306° West  Level Estimated
Fri 02:42:00 AM 60.4623 103.8389 306° West  Level Estimated
Fri 02:43:00 AM 60.5312 103.6415 305° West  Level Estimated
Fri 02:44:00 AM 60.5997 103.4433 305° West  Level Estimated
Fri 02:45:00 AM 60.6679 103.2442 305° West  Level Estimated
Fri 02:46:00 AM 60.7359 103.0443 305° West  Level Estimated
Fri 02:47:00 AM 60.8036 102.8436 305° West  Level Estimated
Fri 02:48:00 AM 60.8709 102.6420 305° West  Level Estimated
Fri 02:49:00 AM 60.9380 102.4395 304° West  Level Estimated
Fri 02:50:00 AM 61.0047 102.2362 304° West  Level Estimated
Fri 02:51:00 AM 61.0712 102.0320 304° West  Level Estimated
Fri 02:52:00 AM 61.1373 101.8270 304° West  Level Estimated
Fri 02:53:00 AM 61.2031 101.6211 304° West  Level Estimated
Fri 02:54:00 AM 61.2686 101.4144 303° West  Level Estimated
Fri 02:55:00 AM 61.3338 101.2068 303° West  Level Estimated
Fri 02:56:00 AM 61.3987 100.9983 303° West  Level Estimated
Fri 02:57:00 AM 61.4632 100.7890 303° West  Level Estimated
Fri 02:58:00 AM 61.5275 100.5788 303° West  Level Estimated
Fri 02:59:00 AM 61.5914 100.3677 303° West  Level Estimated
Fri 03:00:00 AM 61.6550 100.1558 302° West  Level Estimated
Fri 03:01:00 AM 61.7182 99.9429 302° West  Level Estimated
Fri 03:02:00 AM 61.7811 99.7293 302° West  Level Estimated
Fri 03:03:00 AM 61.8437 99.5147 302° West  Level Estimated
Fri 03:04:00 AM 61.9060 99.2993 302° West  Level Estimated
Fri 03:05:00 AM 61.9679 99.0830 301° West  Level Estimated
Fri 03:06:00 AM 62.0294 98.8658 301° West  Level Estimated
Fri 03:07:00 AM 62.0907 98.6477 301° West  Level Estimated
Fri 03:08:00 AM 62.1516 98.4288 301° West  Level Estimated
Fri 03:09:00 AM 62.2121 98.2089 301° West  Level Estimated
Fri 03:10:00 AM 62.2723 97.9882 300° West  Level Estimated
Fri 03:11:00 AM 62.3321 97.7666 300° West  Level Estimated
Fri 03:12:00 AM 62.3916 97.5442 300° West  Level Estimated
Fri 03:13:00 AM 62.4507 97.3208 300° West  Level Estimated
Fri 03:14:00 AM 62.5095 97.0966 300° West  Level Estimated
Fri 03:15:00 AM 62.5679 96.8715 299° West  Level Estimated
Fri 03:16:00 AM 62.6260 96.6455 299° West  Level Estimated
Fri 03:17:00 AM 62.6836 96.4186 299° West  Level Estimated
Fri 03:18:00 AM 62.7410 96.1908 299° West  Level Estimated
Fri 03:19:00 AM 62.7979 95.9622 299° West  Level Estimated
Fri 03:20:00 AM 62.8545 95.7326 298° West  Level Estimated
Fri 03:21:00 AM 62.9106 95.5022 298° West  Level Estimated
Fri 03:22:00 AM 62.9665 95.2709 298° West  Level Estimated
Fri 03:23:00 AM 63.0219 95.0387 298° West  Level Estimated
Fri 03:24:00 AM 63.0770 94.8057 298° West  Level Estimated
Fri 03:25:00 AM 63.1316 94.5717 297° West  Level Estimated
Fri 03:26:00 AM 63.1859 94.3369 297° West  Level Estimated
Fri 03:27:00 AM 63.2398 94.1012 297° West  Level Estimated
Fri 03:28:00 AM 63.2933 93.8646 297° West  Level Estimated
Fri 03:29:00 AM 63.3464 93.6272 297° West  Level Estimated
Fri 03:30:00 AM 63.3992 93.3888 296° West  Level Estimated
Fri 03:31:00 AM 63.4515 93.1496 296° West  Level Estimated
Fri 03:32:00 AM 63.5034 92.9096 296° West  Level Estimated
Fri 03:33:00 AM 63.5549 92.6686 296° West  Level Estimated
Fri 03:34:00 AM 63.6060 92.4268 296° West  Level Estimated
Fri 03:35:00 AM 63.6567 92.1841 295° West  Level Estimated
Fri 03:36:00 AM 63.7070 91.9406 295° West  Level Estimated
Fri 03:37:00 AM 63.7569 91.6962 295° West  Level Estimated
Fri 03:38:00 AM 63.8063 91.4509 295° West  Level Estimated
Fri 03:39:00 AM 63.8554 91.2048 294° West  Level Estimated
Fri 03:40:00 AM 63.9040 90.9578 294° West  Level Estimated
Fri 03:41:00 AM 63.9522 90.7099 294° West  Level Estimated
Fri 03:42:00 AM 64.0000 90.4612 294° West  Level Estimated
Fri 03:43:00 AM 64.0473 90.2117 294° West  Level Estimated
Fri 03:44:00 AM 64.0943 89.9613 293° West  Level Estimated
Fri 03:45:00 AM 64.1407 89.7101 293° West  Level Estimated
Fri 03:46:00 AM 64.1868 89.4580 293° West  Level Estimated
Fri 03:47:00 AM 64.2324 89.2051 293° West  Level Estimated
Fri 03:48:00 AM 64.2776 88.9514 292° West  Level Estimated
Fri 03:49:00 AM 64.3223 88.6968 292° West  Level Estimated
Fri 03:50:00 AM 64.3666 88.4414 292° West  Level Estimated
Fri 03:51:00 AM 64.4105 88.1852 292° West  Level Estimated
Fri 03:52:00 AM 64.4539 87.9282 291° West  Level Estimated
Fri 03:53:00 AM 64.4969 87.6704 291° West  Level Estimated
Fri 03:54:00 AM 64.5394 87.4117 291° West  Level Estimated
Fri 03:55:00 AM 64.5814 87.1523 291° West  Level Estimated
Fri 03:56:00 AM 64.6230 86.8920 291° West  Level Estimated
Fri 03:57:00 AM 64.6641 86.6310 290° West  Level Estimated
Fri 03:58:00 AM 64.7048 86.3692 290° West  Level Estimated
Fri 03:59:00 AM 64.7450 86.1066 290° West  Level Estimated
Fri 04:00:00 AM 64.7848 85.8432 290° West  Level Estimated
Fri 04:01:00 AM 64.8240 85.5790 289° West  Level Estimated
Fri 04:02:00 AM 64.8628 85.3141 289° West  Level Estimated
Fri 04:03:00 AM 64.9012 85.0484 289° West  Level Estimated
Fri 04:04:00 AM 64.9390 84.7820 289° West  Level Estimated
Fri 04:05:00 AM 64.9764 84.5148 288° West  Level Estimated
Fri 04:06:00 AM 65.0133 84.2468 288° West  Level Estimated
Fri 04:07:00 AM 65.0497 83.9782 288° West  Level Estimated
Fri 04:08:00 AM 65.0856 83.7088 288° West  Level Estimated
Fri 04:09:00 AM 65.1211 83.4387 287° West  Level Estimated
Fri 04:10:00 AM 65.1561 83.1678 287° West  Level Estimated
Fri 04:11:00 AM 65.1905 82.8963 287° West  Level Estimated
Fri 04:12:00 AM 65.2245 82.6240 287° West  Level Estimated
Fri 04:13:00 AM 65.2580 82.3511 286° West  Level Estimated
Fri 04:14:00 AM 65.2910 82.0774 286° West  Level Estimated
Fri 04:15:00 AM 65.3235 81.8031 286° West  Level Estimated
Fri 04:16:00 AM 65.3555 81.5281 286° West  Level Estimated
Fri 04:17:00 AM 65.3870 81.2524 285° West  Level Estimated
Fri 04:18:00 AM 65.4180 80.9761 285° West  Level Estimated
Fri 04:19:00 AM 65.4485 80.6992 285° West  Level Estimated
Fri 04:20:00 AM 65.4784 80.4216 285° West  Level Estimated
Fri 04:21:00 AM 65.5079 80.1433 284° West  Level Estimated
Fri 04:22:00 AM 65.5369 79.8645 284° West  Level Estimated
Fri 04:23:00 AM 65.5653 79.5850 284° West  Level Estimated
Fri 04:24:00 AM 65.5933 79.3049 284° West  Level Estimated
Fri 04:25:00 AM 65.6207 79.0243 283° West  Level Estimated
Fri 04:26:00 AM 65.6476 78.7430 283° West  Level Estimated
Fri 04:27:00 AM 65.6740 78.4612 283° West  Level Estimated
Fri 04:28:00 AM 65.6998 78.1787 283° West  Level Estimated
Fri 04:29:00 AM 65.7252 77.8958 282° West  Level Estimated
Fri 04:30:00 AM 65.7500 77.6123 282° West  Level Estimated
Fri 04:31:00 AM 65.7742 77.3282 282° West  Level Estimated
Fri 04:32:00 AM 65.7980 77.0436 282° West  Level Estimated
Fri 04:33:00 AM 65.8212 76.7585 281° West  Level Estimated
Fri 04:34:00 AM 65.8439 76.4729 281° West  Level Estimated
Fri 04:35:00 AM 65.8661 76.1868 281° West  Level Estimated
Fri 04:36:00 AM 65.8877 75.9001 281° West  Level Estimated
Fri 04:37:00 AM 65.9088 75.6131 280° West  Level Estimated
Fri 04:38:00 AM 65.9294 75.3255 280° West  Level Estimated
Fri 04:39:00 AM 65.9494 75.0375 280° West  Level Estimated
Fri 04:40:00 AM 65.9689 74.7491 280° West  Level Estimated
Fri 04:41:00 AM 65.9878 74.4602 279° West  Level Estimated
Fri 04:42:00 AM 66.0062 74.1709 279° West  Level Estimated
Fri 04:43:00 AM 66.0240 73.8811 279° West  Level Estimated
Fri 04:44:00 AM 66.0414 73.5910 278° West  Level Estimated
Fri 04:45:00 AM 66.0581 73.3005 278° West  Level Estimated
Fri 04:46:00 AM 66.0743 73.0096 278° West  Level Estimated
Fri 04:47:00 AM 66.0900 72.7184 278° West  Level Estimated
Fri 04:48:00 AM 66.1051 72.4268 277° West  Level Estimated
Fri 04:49:00 AM 66.1197 72.1348 277° West  Level Estimated
Fri 04:50:00 AM 66.1337 71.8425 277° West  Level Estimated
Fri 04:51:00 AM 66.1471 71.5499 277° West  Level Estimated
Fri 04:52:00 AM 66.1601 71.2570 276° West  Level Estimated
Fri 04:53:00 AM 66.1724 70.9639 276° West  Level Estimated
Fri 04:54:00 AM 66.1842 70.6704 276° West  Level Estimated
Fri 04:55:00 AM 66.1954 70.3766 276° West  Level Estimated
Fri 04:56:00 AM 66.2061 70.0827 275° West  Level Estimated
Fri 04:57:00 AM 66.2163 69.7884 275° West  Level Estimated
Fri 04:58:00 AM 66.2258 69.4940 275° West  Level Estimated
Fri 04:59:00 AM 66.2348 69.1993 274° West  Level Estimated
Fri 05:00:00 AM 66.2433 68.9044 274° West  Level Estimated
Fri 05:01:00 AM 66.2512 68.6093 274° West  Level Estimated
Fri 05:02:00 AM 66.2585 68.3141 274° West  Level Estimated
Fri 05:03:00 AM 66.2653 68.0187 273° West  Level Estimated
Fri 05:04:00 AM 66.2715 67.7231 273° West  Level Estimated
Fri 05:05:00 AM 66.2772 67.4274 273° West  Level Estimated
Fri 05:06:00 AM 66.2822 67.1315 273° West  Level Estimated
Fri 05:07:00 AM 66.2868 66.8356 272° West  Level Estimated
Fri 05:08:00 AM 66.2907 66.5395 272° West  Level Estimated
Fri 05:09:00 AM 66.2941 66.2434 272° West  Level Estimated
Fri 05:10:00 AM 66.2970 65.9472 271° West  Level Estimated
Fri 05:11:00 AM 66.2992 65.6509 271° West  Level Estimated
Fri 05:12:00 AM 66.3009 65.3546 271° West  Level Estimated
Fri 05:13:00 AM 66.3021 65.0583 271° West  Level Estimated
Fri 05:14:00 AM 66.3027 64.7619 270° West  Level Estimated
Fri 05:15:00 AM 66.3027 64.4655 270° West  Level Estimated
Fri 05:16:00 AM 66.3021 64.1691 270° West  Level Estimated
Fri 05:17:00 AM 66.3010 63.8728 270° West  Level Estimated
Fri 05:18:00 AM 66.2993 63.5765 269° West  Level Estimated
Fri 05:19:00 AM 66.2971 63.2802 269° West  Level Estimated
Fri 05:20:00 AM 66.2943 62.9840 269° West  Level Estimated
Fri 05:21:00 AM 66.2909 62.6878 269° West  Level Estimated
Fri 05:22:00 AM 66.2870 62.3918 268° West  Level Estimated
Fri 05:23:00 AM 66.2825 62.0958 268° West  Level Estimated
Fri 05:24:00 AM 66.2774 61.8000 268° West  Level Estimated
Fri 05:25:00 AM 66.2718 61.5043 267° West  Level Estimated
Fri 05:26:00 AM 66.2656 61.2087 267° West  Level Estimated
Fri 05:27:00 AM 66.2589 60.9133 267° West  Level Estimated
Fri 05:28:00 AM 66.2515 60.6180 267° West  Level Estimated
Fri 05:29:00 AM 66.2437 60.3229 266° West  Level Estimated
Fri 05:30:00 AM 66.2353 60.0280 266° West  Level Estimated
Fri 05:31:00 AM 66.2263 59.7333 266° West  Level Estimated
Fri 05:32:00 AM 66.2167 59.4389 266° West  Level Estimated
Fri 05:33:00 AM 66.2066 59.1446 265° West  Level Estimated
Fri 05:34:00 AM 66.1960 58.8506 265° West  Level Estimated
Fri 05:35:00 AM 66.1847 58.5569 265° West  Level Estimated
Fri 05:36:00 AM 66.1730 58.2634 264° West  Level Estimated
Fri 05:37:00 AM 66.1606 57.9702 264° West  Level Estimated
Fri 05:38:00 AM 66.1478 57.6773 264° West  Level Estimated
Fri 05:39:00 AM 66.1343 57.3847 264° West  Level Estimated
Fri 05:40:00 AM 66.1203 57.0924 263° West  Level Estimated
Fri 05:41:00 AM 66.1058 56.8004 263° West  Level Estimated
Fri 05:42:00 AM 66.0907 56.5088 263° West  Level Estimated
Fri 05:43:00 AM 66.0751 56.2175 263° West  Level Estimated
Fri 05:44:00 AM 66.0589 55.9266 262° West  Level Estimated
Fri 05:45:00 AM 66.0421 55.6361 262° West  Level Estimated
Fri 05:46:00 AM 66.0249 55.3460 262° West  Level Estimated
Fri 05:47:00 AM 66.0070 55.0562 262° West  Level Estimated
Fri 05:48:00 AM 65.9887 54.7669 261° West  Level Estimated
Fri 05:49:00 AM 65.9698 54.4780 261° West  Level Estimated
Fri 05:50:00 AM 65.9503 54.1895 261° West  Level Estimated
Fri 05:51:00 AM 65.9303 53.9015 260° West  Level Estimated
Fri 05:52:00 AM 65.9098 53.6139 260° West  Level Estimated
Fri 05:53:00 AM 65.8887 53.3268 260° West  Level Estimated
Fri 05:54:00 AM 65.8671 53.0402 260° West  Level Estimated
Fri 05:55:00 AM 65.8450 52.7540 259° West  Level Estimated
Fri 05:56:00 AM 65.8223 52.4684 259° West  Level Estimated
Fri 05:57:00 AM 65.7991 52.1833 259° West  Level Estimated
Fri 05:58:00 AM 65.7754 51.8987 259° West  Level Estimated
Fri 05:59:00 AM 65.7511 51.6146 258° West  Level Estimated
Fri 06:00:00 AM 65.7263 51.3310 258° West  Level Estimated
Fri 06:01:00 AM 65.7010 51.0480 258° West  Level Estimated
Fri 06:02:00 AM 65.6752 50.7656 258° West  Level Estimated
Fri 06:03:00 AM 65.6488 50.4837 257° West  Level Estimated
Fri 06:04:00 AM 65.6220 50.2024 257° West  Level Estimated
Fri 06:05:00 AM 65.5946 49.9217 257° West  Level Estimated
Fri 06:06:00 AM 65.5667 49.6416 257° West  Level Estimated
Fri 06:07:00 AM 65.5383 49.3621 256° West  Level Estimated
Fri 06:08:00 AM 65.5093 49.0832 256° West  Level Estimated
Fri 06:09:00 AM 65.4799 48.8049 256° West  Level Estimated
Fri 06:10:00 AM 65.4499 48.5273 256° West  Level Estimated
Fri 06:11:00 AM 65.4195 48.2503 255° West  Level Estimated
Fri 06:12:00 AM 65.3885 47.9740 255° West  Level Estimated
Fri 06:13:00 AM 65.3570 47.6983 255° West  Level Estimated
Fri 06:14:00 AM 65.3251 47.4233 255° West  Level Estimated
Fri 06:15:00 AM 65.2926 47.1489 254° West  Level Estimated
Fri 06:16:00 AM 65.2596 46.8752 254° West  Level Estimated
Fri 06:17:00 AM 65.2262 46.6023 254° West  Level Estimated
Fri 06:18:00 AM 65.1922 46.3300 254° West  Level Estimated
Fri 06:19:00 AM 65.1577 46.0584 253° West  Level Estimated
Fri 06:20:00 AM 65.1228 45.7875 253° West  Level Estimated
Fri 06:21:00 AM 65.0874 45.5173 253° West  Level Estimated
Fri 06:22:00 AM 65.0515 45.2479 253° West  Level Estimated
Fri 06:23:00 AM 65.0151 44.9792 252° West  Level Estimated
Fri 06:24:00 AM 64.9782 44.7112 252° West  Level Estimated
Fri 06:25:00 AM 64.9408 44.4440 252° West  Level Estimated
Fri 06:26:00 AM 64.9030 44.1775 252° West  Level Estimated
Fri 06:27:00 AM 64.8647 43.9118 251° West  Level Estimated
Fri 06:28:00 AM 64.8259 43.6468 251° West  Level Estimated
Fri 06:29:00 AM 64.7867 43.3826 251° West  Level Estimated
Fri 06:30:00 AM 64.7469 43.1192 251° West  Level Estimated
Fri 06:31:00 AM 64.7067 42.8566 250° West  Level Estimated
Fri 06:32:00 AM 64.6661 42.5947 250° West  Level Estimated
Fri 06:33:00 AM 64.6250 42.3336 250° West  Level Estimated
Fri 06:34:00 AM 64.5834 42.0733 250° West  Level Estimated
Fri 06:35:00 AM 64.5414 41.8139 249° West  Level Estimated
Fri 06:36:00 AM 64.4989 41.5552 249° West  Level Estimated
Fri 06:37:00 AM 64.4560 41.2973 249° West  Level Estimated
Fri 06:38:00 AM 64.4126 41.0403 249° West  Level Estimated
Fri 06:39:00 AM 64.3688 40.7840 249° West  Level Estimated
Fri 06:40:00 AM 64.3245 40.5286 248° West  Level Estimated
Fri 06:41:00 AM 64.2798 40.2740 248° West  Level Estimated
Fri 06:42:00 AM 64.2346 40.0202 248° West  Level Estimated
Fri 06:43:00 AM 64.1890 39.7673 248° West  Level Estimated
Fri 06:44:00 AM 64.1430 39.5152 247° West  Level Estimated
Fri 06:45:00 AM 64.0965 39.2639 247° West  Level Estimated
Fri 06:46:00 AM 64.0496 39.0135 247° West  Level Estimated
Fri 06:47:00 AM 64.0023 38.7639 247° West  Level Estimated
Fri 06:48:00 AM 63.9545 38.5151 246° West  Level Estimated
Fri 06:49:00 AM 63.9063 38.2673 246° West  Level Estimated
Fri 06:50:00 AM 63.8577 38.0202 246° West  Level Estimated
Fri 06:51:00 AM 63.8087 37.7741 246° West  Level Estimated
Fri 06:52:00 AM 63.7593 37.5287 246° West  Level Estimated
Fri 06:53:00 AM 63.7094 37.2843 245° Southwest  Level Estimated
Fri 06:54:00 AM 63.6591 37.0407 245° Southwest  Level Estimated
Fri 06:55:00 AM 63.6085 36.7980 245° Southwest  Level Estimated
Fri 06:56:00 AM 63.5574 36.5561 245° Southwest  Level Estimated
Fri 06:57:00 AM 63.5059 36.3151 244° Southwest  Level Estimated
Fri 06:58:00 AM 63.4540 36.0750 244° Southwest  Level Estimated
Fri 06:59:00 AM 63.4017 35.8357 244° Southwest  Level Estimated
Fri 07:00:00 AM 63.3490 35.5974 244° Southwest  Level Estimated
Fri 07:01:00 AM 63.2959 35.3599 244° Southwest  Level Estimated
Fri 07:02:00 AM 63.2424 35.1232 243° Southwest  Level Estimated
Fri 07:03:00 AM 63.1885 34.8875 243° Southwest  Level Estimated
Fri 07:04:00 AM 63.1343 34.6530 243° Southwest  Level Estimated
Fri 07:05:00 AM 63.0798 34.4194 243° Southwest  Level Estimated
Fri 07:06:00 AM 63.0248 34.1867 243° Southwest  Level Estimated
Fri 07:07:00 AM 62.9695 33.9549 242° Southwest  Level Estimated
Fri 07:08:00 AM 62.9138 33.7240 242° Southwest  Level Estimated
Fri 07:09:00 AM 62.8577 33.4939 242° Southwest  Level Estimated
Fri 07:10:00 AM 62.8013 33.2647 242° Southwest  Level Estimated
Fri 07:11:00 AM 62.7445 33.0364 242° Southwest  Level Estimated
Fri 07:12:00 AM 62.6873 32.8089 241° Southwest  Level Estimated
Fri 07:13:00 AM 62.6297 32.5824 241° Southwest  Level Estimated
Fri 07:14:00 AM 62.5718 32.3567 241° Southwest  Level Estimated
Fri 07:15:00 AM 62.5135 32.1319 241° Southwest  Level Estimated
Fri 07:16:00 AM 62.4549 31.9080 241° Southwest  Level Estimated
Fri 07:17:00 AM 62.3959 31.6850 240° Southwest  Level Estimated
Fri 07:18:00 AM 62.3365 31.4628 240° Southwest  Level Estimated
Fri 07:19:00 AM 62.2768 31.2415 240° Southwest  Level Estimated
Fri 07:20:00 AM 62.2168 31.0211 240° Southwest  Level Estimated
Fri 07:21:00 AM 62.1563 30.8016 240° Southwest  Level Estimated
Fri 07:22:00 AM 62.0956 30.5830 239° Southwest  Level Estimated
Fri 07:23:00 AM 62.0345 30.3652 239° Southwest  Level Estimated
Fri 07:24:00 AM 61.9731 30.1483 239° Southwest  Level Estimated
Fri 07:25:00 AM 61.9113 29.9323 239° Southwest  Level Estimated
Fri 07:26:00 AM 61.8492 29.7171 239° Southwest  Level Estimated
Fri 07:27:00 AM 61.7867 29.5029 238° Southwest  Level Estimated
Fri 07:28:00 AM 61.7239 29.2895 238° Southwest  Level Estimated
Fri 07:29:00 AM 61.6608 29.0770 238° Southwest  Level Estimated
Fri 07:30:00 AM 61.5974 28.8653 238° Southwest  Level Estimated
Fri 07:31:00 AM 61.5336 28.6545 238° Southwest  Level Estimated
Fri 07:32:00 AM 61.4695 28.4446 237° Southwest  Level Estimated
Fri 07:33:00 AM 61.4051 28.2355 237° Southwest  Level Estimated
Fri 07:34:00 AM 61.3404 28.0273 237° Southwest  Level Estimated
Fri 07:35:00 AM 61.2753 27.8200 237° Southwest  Level Estimated
Fri 07:36:00 AM 61.2100 27.6135 237° Southwest  Level Estimated
Fri 07:37:00 AM 61.1443 27.4079 237° Southwest  Level Estimated
Fri 07:38:00 AM 61.0783 27.2031 236° Southwest  Level Estimated
Fri 07:39:00 AM 61.0121 26.9992 236° Southwest  Level Estimated
Fri 07:40:00 AM 60.9454 26.7961 236° Southwest  Level Estimated
Fri 07:41:00 AM 60.8786 26.5939 236° Southwest  Level Estimated
Fri 07:42:00 AM 60.8113 26.3926 236° Southwest  Level Estimated
Fri 07:43:00 AM 60.7438 26.1920 235° Southwest  Level Estimated
Fri 07:44:00 AM 60.6760 25.9924 235° Southwest  Level Estimated
Fri 07:45:00 AM 60.6079 25.7935 235° Southwest  Level Estimated
Fri 07:46:00 AM 60.5395 25.5955 235° Southwest  Level Estimated
Fri 07:47:00 AM 60.4709 25.3984 235° Southwest  Level Estimated
Fri 07:48:00 AM 60.4019 25.2020 235° Southwest  Level Estimated
Fri 07:49:00 AM 60.3326 25.0066 234° Southwest  Level Estimated
Fri 07:50:00 AM 60.3172 24.9633 234° Southwest  Level Estimated
Fri 07:51:00 AM 60.3172 24.9633 37° Northeast  Level Estimated
Fri 07:52:00 AM 60.3172 24.9633 37° Northeast  Level Estimated
Fri 07:53:00 AM 60.3172 24.9633 37° Northeast  Level Estimated
Fri 07:54:00 AM 60.3172 24.9633 37° Northeast  Level Estimated
Fri 07:55:00 AM 60.3172 24.9633 37° Northeast  Level Estimated
Fri 07:56:00 AM 60.3172 24.9633 37° Northeast  Level Estimated
Fri 07:57:00 AM 60.3172 24.9633 37° Northeast  Level Estimated
Fri 07:58:00 AM 60.3172 24.9633 37° Northeast  Level Estimated
Fri 07:59:00 AM 60.3172 24.9633 37° Northeast  Level Estimated
Fri 08:00:00 AM 60.3172 24.9633 37° Northeast  Level Estimated
Fri 08:01:00 AM 60.3172 24.9633 37° Northeast  Level Estimated
Fri 08:02:00 AM 60.3172 24.9633 37° Northeast  Level Estimated
Fri 08:03:00 AM 60.3172 24.9633 37° Northeast  Level Estimated
Fri 08:04:00 AM 60.3172 24.9633 37° Northeast  Level Estimated
Fri 08:05:00 AM 60.3172 24.9633 37° Northeast  Level Estimated

Login

Don't have an account? Register now (free) for customized features, flight alerts, and more!